地図

経路データ

SID SEASON NUMBER BASIN SUBBASIN NAME ISO_TIME NATURE LAT LON WMO_WIND WMO_PRES WMO_AGENCY TRACK_TYPE DIST2LAND LANDFALL IFLAG USA_AGENCY USA_ATCF_ID USA_LAT USA_LON USA_RECORD USA_STATUS USA_WIND USA_PRES USA_SSHS USA_R34_NE USA_R34_SE USA_R34_SW USA_R34_NW USA_R50_NE USA_R50_SE USA_R50_SW USA_R50_NW USA_R64_NE USA_R64_SE USA_R64_SW USA_R64_NW USA_POCI USA_ROCI USA_RMW USA_EYE TOKYO_LAT TOKYO_LON TOKYO_GRADE TOKYO_WIND TOKYO_PRES TOKYO_R50_DIR TOKYO_R50_LONG TOKYO_R50_SHORT TOKYO_R30_DIR TOKYO_R30_LONG TOKYO_R30_SHORT TOKYO_LAND CMA_LAT CMA_LON CMA_CAT CMA_WIND CMA_PRES HKO_LAT HKO_LON HKO_CAT HKO_WIND HKO_PRES NEWDELHI_LAT NEWDELHI_LON NEWDELHI_GRADE NEWDELHI_WIND NEWDELHI_PRES NEWDELHI_CI NEWDELHI_DP NEWDELHI_POCI REUNION_LAT REUNION_LON REUNION_TYPE REUNION_WIND REUNION_PRES REUNION_TNUM REUNION_CI REUNION_RMW REUNION_R34_NE REUNION_R34_SE REUNION_R34_SW REUNION_R34_NW REUNION_R50_NE REUNION_R50_SE REUNION_R50_SW REUNION_R50_NW REUNION_R64_NE REUNION_R64_SE REUNION_R64_SW REUNION_R64_NW BOM_LAT BOM_LON BOM_TYPE BOM_WIND BOM_PRES BOM_TNUM BOM_CI BOM_RMW BOM_R34_NE BOM_R34_SE BOM_R34_SW BOM_R34_NW BOM_R50_NE BOM_R50_SE BOM_R50_SW BOM_R50_NW BOM_R64_NE BOM_R64_SE BOM_R64_SW BOM_R64_NW BOM_ROCI BOM_POCI BOM_EYE BOM_POS_METHOD BOM_PRES_METHOD NADI_LAT NADI_LON NADI_CAT NADI_WIND NADI_PRES WELLINGTON_LAT WELLINGTON_LON WELLINGTON_WIND WELLINGTON_PRES DS824_LAT DS824_LON DS824_STAGE DS824_WIND DS824_PRES TD9636_LAT TD9636_LON TD9636_STAGE TD9636_WIND TD9636_PRES TD9635_LAT TD9635_LON TD9635_WIND TD9635_PRES TD9635_ROCI NEUMANN_LAT NEUMANN_LON NEUMANN_CLASS NEUMANN_WIND NEUMANN_PRES MLC_LAT MLC_LON MLC_CLASS MLC_WIND MLC_PRES USA_GUST BOM_GUST BOM_GUST_PER REUNION_GUST REUNION_GUST_PER USA_SEAHGT USA_SEARAD_NE USA_SEARAD_SE USA_SEARAD_SW USA_SEARAD_NW STORM_SPEED STORM_DIR
1954245N17244 1954 53 EP MM NOT_NAMED 1954-09-02 00:00:00 TS 17.1000 -116.100 45 hurdat_epa main 909 909 O________OO___ hurdat_epa EP051954 17.1000 -116.100 TS 45 0 17.1000 -116.100 TC 45 17.1000 -116.100 2 19 279
1954245N17244 1954 53 EP MM NOT_NAMED 1954-09-02 03:00:00 TS 17.2570 -117.100 main 970 970 P________PP___ EP051954 17.2558 -117.092 TS 45 0 17.2558 -117.092 TC 45 17.2620 -117.130 2 19 279
1954245N17244 1954 53 EP MM NOT_NAMED 1954-09-02 06:00:00 TS 17.4014 -118.110 45 hurdat_epa main 1026 1026 O________OP___ hurdat_epa EP051954 17.4000 -118.100 TS 45 0 17.4000 -118.100 TC 45 17.4070 -118.148 2 20 278
1954245N17244 1954 53 EP MM NOT_NAMED 1954-09-02 09:00:00 TS 17.5225 -119.127 main 1083 1083 P________PP___ EP051954 17.5223 -119.122 TS 45 0 17.5223 -119.122 TC 45 17.5234 -119.143 2 19 276
1954245N17244 1954 53 EP MM NOT_NAMED 1954-09-02 12:00:00 TS 17.6000 -120.100 45 hurdat_epa main 1147 1147 O________OO___ hurdat_epa EP051954 17.6000 -120.100 TS 45 0 17.6000 -120.100 TC 45 17.6000 -120.100 2 18 273
1954245N17244 1954 53 EP MM NOT_NAMED 1954-09-02 15:00:00 TS 17.6233 -120.986 main 1215 1215 P________PP___ EP051954 17.6219 -120.980 TS 45 0 17.6219 -120.980 TC 45 17.6290 -121.008 2 16 270
1954245N17244 1954 53 EP MM NOT_NAMED 1954-09-02 18:00:00 TS 17.6032 -121.813 45 hurdat_epa main 1279 1279 O________OP___ hurdat_epa EP051954 17.6000 -121.800 TS 45 0 17.6000 -121.800 TC 45 17.6161 -121.863 2 16 268
1954245N17244 1954 53 EP MM NOT_NAMED 1954-09-02 21:00:00 TS 17.5659 -122.636 main 1344 1344 P________PP___ EP051954 17.5648 -122.630 TS 45 0 17.5648 -122.630 TC 45 17.5701 -122.661 2 15 266
1954245N17244 1954 53 EP MM NOT_NAMED 1954-09-03 00:00:00 TS 17.5000 -123.400 45 hurdat_epa main 1418 1418 O________OO___ hurdat_epa EP051954 17.5000 -123.400 TS 45 0 17.5000 -123.400 TC 45 17.5000 -123.400 2 14 263
1954245N17244 1954 53 EP MM NOT_NAMED 1954-09-03 03:00:00 TS 17.4080 -124.076 main 1480 1480 P________PP___ EP051954 17.4071 -124.080 TS 45 0 17.4071 -124.080 TC 45 17.4114 -124.062 2 13 261
1954245N17244 1954 53 EP MM NOT_NAMED 1954-09-03 06:00:00 TS 17.3009 -124.695 45 hurdat_epa main 1529 1529 O________OP___ hurdat_epa EP051954 17.3000 -124.700 TS 45 0 17.3000 -124.700 TC 45 17.3048 -124.673 2 12 259
1954245N17244 1954 53 EP MM NOT_NAMED 1954-09-03 09:00:00 TS 17.1928 -125.282 main 1578 1578 P________PP___ EP051954 17.1920 -125.285 TS 45 0 17.1920 -125.285 TC 45 17.1959 -125.272 2 12 260
1954245N17244 1954 53 EP MM NOT_NAMED 1954-09-03 12:00:00 TS 17.1000 -125.900 45 hurdat_epa main 1628 1628 O________OO___ hurdat_epa EP051954 17.1000 -125.900 TS 45 0 17.1000 -125.900 TC 45 17.1000 -125.900 2 13 263
1954245N17244 1954 53 EP MM NOT_NAMED 1954-09-03 15:00:00 TS 17.0428 -126.631 main 1686 1686 P________PP___ EP051954 17.0425 -126.627 TS 45 0 17.0425 -126.627 TC 45 17.0443 -126.646 2 14 266
1954245N17244 1954 53 EP MM NOT_NAMED 1954-09-03 18:00:00 TS 17.0002 -127.404 45 hurdat_epa main 1745 1745 O________OP___ hurdat_epa EP051954 17.0000 -127.400 TS 45 0 17.0000 -127.400 TC 45 17.0009 -127.422 2 15 267
1954245N17244 1954 53 EP MM NOT_NAMED 1954-09-03 21:00:00 TS 16.9574 -128.181 main 1806 1806 P________PP___ EP051954 16.9575 -128.180 TS 45 0 16.9575 -128.180 TC 45 16.9569 -128.187 2 14 266
1954245N17244 1954 53 EP MM NOT_NAMED 1954-09-04 00:00:00 TS 16.9000 -128.900 45 hurdat_epa main 1868 1868 O________OO___ hurdat_epa EP051954 16.9000 -128.900 TS 45 0 16.9000 -128.900 TC 45 16.9000 -128.900 2 13 263
1954245N17244 1954 53 EP MM NOT_NAMED 1954-09-04 03:00:00 TS 16.8010 -129.486 main 1923 1923 P________PP___ EP051954 16.8071 -129.480 TS 45 0 16.8071 -129.480 TC 45 16.7766 -129.512 2 11 259
1954245N17244 1954 53 EP MM NOT_NAMED 1954-09-04 06:00:00 TS 16.6892 -130.014 45 hurdat_epa main 1970 1970 O________OP___ hurdat_epa EP051954 16.7000 -130.000 TS 45 0 16.7000 -130.000 TC 45 16.6460 -130.068 2 11 257
1954245N17244 1954 53 EP MM NOT_NAMED 1954-09-04 09:00:00 TS 16.5704 -130.558 main 2026 2026 P________PP___ EP051954 16.5774 -130.550 TS 45 0 16.5774 -130.550 TC 45 16.5424 -130.590 2 11 260
1954245N17244 1954 53 EP MM NOT_NAMED 1954-09-04 12:00:00 TS 16.5000 -131.100 45 hurdat_epa main 2073 2073 O________OO___ hurdat_epa EP051954 16.5000 -131.100 TS 45 0 16.5000 -131.100 TC 45 16.5000 -131.100 2 11 267
1954245N17244 1954 53 EP MM NOT_NAMED 1954-09-04 15:00:00 TS 16.5087 -131.657 main 2123 2123 P________PP___ EP051954 16.5049 -131.658 TS 45 0 16.5049 -131.658 TC 45 16.5237 -131.656 2 11 276
1954245N17244 1954 53 EP MM NOT_NAMED 1954-09-04 18:00:00 TS 16.6030 -132.200 45 hurdat_epa main 2158 2158 O________OP___ hurdat_epa EP051954 16.6000 -132.200 TS 45 0 16.6000 -132.200 TC 45 16.6150 -132.202 2 11 284
1954245N17244 1954 53 EP MM NOT_NAMED 1954-09-04 21:00:00 TS 16.7587 -132.722 main 2186 2186 P________PP___ EP051954 16.7549 -132.723 TS 45 0 16.7549 -132.723 TC 45 16.7738 -132.722 2 10 293
1954245N17244 1954 53 EP MM NOT_NAMED 1954-09-05 00:00:00 TS 17.0000 -133.200 45 hurdat_epa main 2216 2216 O________OO___ hurdat_epa EP051954 17.0000 -133.200 TS 45 0 17.0000 -133.200 TC 45 17.0000 -133.200 2 10 303
1954245N17244 1954 53 EP MM NOT_NAMED 1954-09-05 03:00:00 TS 17.3213 -133.626 main 2231 2200 P________PP___ EP051954 17.3274 -133.623 TS 45 0 17.3274 -133.623 TC 45 17.2971 -133.638 2 10 312
1954245N17244 1954 53 EP MM NOT_NAMED 1954-09-05 06:00:00 TS 17.6909 -134.006 45 hurdat_epa main 2200 2153 O________OP___ hurdat_epa EP051954 17.7000 -134.000 TS 45 0 17.7000 -134.000 TC 45 17.6545 -134.032 2 10 316
1954245N17244 1954 53 EP MM NOT_NAMED 1954-09-05 09:00:00 TS 18.0589 -134.375 main 2151 2116 P________PP___ EP051954 18.0650 -134.373 TS 45 0 18.0650 -134.373 TC 45 18.0347 -134.385 2 10 317
1954245N17244 1954 53 EP MM NOT_NAMED 1954-09-05 12:00:00 TS 18.4000 -134.700 45 hurdat_epa main 2116 2081 O________OO___ hurdat_epa EP051954 18.4000 -134.700 TS 45 0 18.4000 -134.700 TC 45 18.4000 -134.700 2 8 317
1954245N17244 1954 53 EP MM NOT_NAMED 1954-09-05 15:00:00 TS 18.6652 -134.975 main 2081 2058 P________PP___ EP051954 18.6574 -134.965 TS 45 0 18.6574 -134.965 TC 45 18.6964 -135.015 2 7 316
1954245N17244 1954 53 EP MM NOT_NAMED 1954-09-05 18:00:00 TS 18.9145 -135.218 45 hurdat_epa main 2058 2024 O________OP___ hurdat_epa EP051954 18.9000 -135.200 TS 45 0 18.9000 -135.200 TC 45 18.9723 -135.290 2 7 318
1954245N17244 1954 53 EP MM NOT_NAMED 1954-09-05 21:00:00 TS 19.2074 -135.482 main 2024 2000 P________PP___ EP051954 19.2000 -135.472 TS 45 0 19.2000 -135.472 TC 45 19.2371 -135.521 2 7 322
1954245N17244 1954 53 EP MM NOT_NAMED 1954-09-06 00:00:00 TS 19.5000 -135.700 45 hurdat_epa main 2000 1989 O________OO___ hurdat_epa EP051954 19.5000 -135.700 TS 45 0 19.5000 -135.700 TC 45 19.5000 -135.700 2 6 330
1954245N17244 1954 53 EP MM NOT_NAMED 1954-09-06 03:00:00 TS 19.7533 -135.823 main 1988 1977 P________PP___ EP051954 19.7499 -135.830 TS 45 0 19.7499 -135.830 TC 45 19.7665 -135.794 2 5 341
1954245N17244 1954 53 EP MM NOT_NAMED 1954-09-06 06:00:00 TS 20.0069 -135.889 45 hurdat_epa main 1977 1976 O________OP___ hurdat_epa EP051954 20.0000 -135.900 TS 45 0 20.0000 -135.900 TC 45 20.0345 -135.844 2 5 351
1954245N17244 1954 53 EP MM NOT_NAMED 1954-09-06 09:00:00 TS 20.2900 -135.922 main 1976 1966 P________PP___ EP051954 20.2849 -135.928 TS 45 0 20.2849 -135.928 TC 45 20.3102 -135.897 2 6 350
1954245N17244 1954 53 EP MM NOT_NAMED 1954-09-06 12:00:00 TS 20.6000 -136.000 45 hurdat_epa main 1966 1946 O________OO___ hurdat_epa EP051954 20.6000 -136.000 TS 45 0 20.6000 -136.000 TC 45 20.6000 -136.000 2 7 338
1954245N17244 1954 53 EP MM NOT_NAMED 1954-09-06 15:00:00 TS 20.9430 -136.210 main 1946 1916 P________PP___ EP051954 20.9500 -136.212 TS 45 0 20.9500 -136.212 TC 45 20.9147 -136.201 2 8 326
1954245N17244 1954 53 EP MM NOT_NAMED 1954-09-06 18:00:00 TS 21.2885 -136.492 45 hurdat_epa main 1916 1887 O________OP___ hurdat_epa EP051954 21.3000 -136.500 TS 45 0 21.3000 -136.500 TC 45 21.2424 -136.460 2 8 321
1954245N17244 1954 53 EP MM NOT_NAMED 1954-09-06 21:00:00 TS 21.6007 -136.781 main 1887 1859 P________PP___ EP051954 21.6074 -136.785 TS 45 0 21.6074 -136.785 TC 45 21.5740 -136.764 2 8 317
1954245N17244 1954 53 EP MM NOT_NAMED 1954-09-07 00:00:00 TS 21.9000 -137.100 45 hurdat_epa main 1859 1830 O________OO___ hurdat_epa EP051954 21.9000 -137.100 TS 45 0 21.9000 -137.100 TC 45 21.9000 -137.100 2 9 315
1954245N17244 1954 53 EP MM NOT_NAMED 1954-09-07 03:00:00 TS 22.2095 -137.436 main 1831 1794 P________PP___ EP051954 22.1999 -137.435 TS 45 0 22.1999 -137.435 TC 45 22.2477 -137.438 2 9 314
1954245N17244 1954 53 EP MM NOT_NAMED 1954-09-07 06:00:00 TS 22.5165 -137.801 45 hurdat_epa main 1794 1759 O________OP___ hurdat_epa EP051954 22.5000 -137.800 TS 45 0 22.5000 -137.800 TC 45 22.5823 -137.804 2 9 312
1954245N17244 1954 53 EP MM NOT_NAMED 1954-09-07 09:00:00 TS 22.8391 -138.193 main 1759 1724 P________PP___ EP051954 22.8300 -138.192 TS 45 0 22.8300 -138.192 TC 45 22.8757 -138.194 2 9 308
1954245N17244 1954 53 EP MM NOT_NAMED 1954-09-07 12:00:00 TS 23.1000 -138.600 45 hurdat_epa main 1724 1686 O________OO___ hurdat_epa EP051954 23.1000 -138.600 TS 45 0 23.1000 -138.600 TC 45 23.1000 -138.600 2 8 299
1954245N17244 1954 53 EP MM NOT_NAMED 1954-09-07 15:00:00 TS 23.2474 -138.991 main 1686 1648 P________PP___ EP051954 23.2448 -138.993 TS 45 0 23.2448 -138.993 TC 45 23.2576 -138.982 2 8 286
1954245N17244 1954 53 EP MM NOT_NAMED 1954-09-07 18:00:00 TS 23.3083 -139.396 45 hurdat_epa main 1648 1608 O________OP___ hurdat_epa EP051954 23.3000 -139.400 TS 45 0 23.3000 -139.400 TC 45 23.3413 -139.382 2 8 276
1954245N17244 1954 53 EP MM NOT_NAMED 1954-09-07 21:00:00 TS 23.3347 -139.825 main 1608 1558 P________PP___ EP051954 23.3298 -139.827 TS 45 0 23.3298 -139.827 TC 45 23.3543 -139.816 2 8 269
1954245N17244 1954 53 EP CP NOT_NAMED 1954-09-08 00:00:00 TS 23.3000 -140.300 45 hurdat_epa main 1558 1506 O________OO___ hurdat_epa EP051954 23.3000 -140.300 TS 45 0 23.3000 -140.300 TC 45 23.3000 -140.300 2 9 264
1954245N17244 1954 53 EP CP NOT_NAMED 1954-09-08 03:00:00 TS 23.2341 -140.821 main 1506 1444 P________PP___ EP051954 23.2373 -140.820 TS 45 0 23.2373 -140.820 TC 45 23.2216 -140.825 2 10 259
1954245N17244 1954 53 EP CP NOT_NAMED 1954-09-08 06:00:00 TS 23.0953 -141.400 45 hurdat_epa main 1444 1379 O________OP___ hurdat_epa EP051954 23.1000 -141.400 TS 45 0 23.1000 -141.400 TC 45 23.0765 -141.402 2 12 252
1954245N17244 1954 53 EP CP NOT_NAMED 1954-09-08 09:00:00 TS 22.8834 -142.021 main 1379 1301 P________PP___ EP051954 22.8872 -142.020 TS 45 0 22.8872 -142.020 TC 45 22.8681 -142.028 2 13 248
1954245N17244 1954 53 EP CP NOT_NAMED 1954-09-08 12:00:00 TS 22.6000 -142.700 45 hurdat_epa main 1301 1224 O________OO___ hurdat_epa EP051954 22.6000 -142.700 TS 45 0 22.6000 -142.700 TC 45 22.6000 -142.700 2 14 245
1954245N17244 1954 53 EP CP NOT_NAMED 1954-09-08 15:00:00 TS 22.2733 -143.431 main 1224 1144 P________PP___ EP051954 22.2723 -143.435 TS 45 0 22.2723 -143.435 TC 45 22.2771 -143.415 2 15 243
1954245N17244 1954 53 EP CP NOT_NAMED 1954-09-08 18:00:00 TS 21.9021 -144.192 45 hurdat_epa main 1134 1054 O________OP___ hurdat_epa EP051954 21.9000 -144.200 TS 45 0 21.9000 -144.200 TC 45 21.9107 -144.161 2 16 241
1954245N17244 1954 53 EP CP NOT_NAMED 1954-09-08 21:00:00 TS 21.5072 -144.950 main 1054 965 P________PP___ EP051954 21.5056 -144.956 TS 45 0 21.5056 -144.956 TC 45 21.5138 -144.927 2 16 240
1954245N17244 1954 53 EP CP NOT_NAMED 1954-09-09 00:00:00 TS 21.1000 -145.700 45 hurdat_epa main 965 O________OO___ hurdat_epa EP051954 21.1000 -145.700 TS 45 0 21.1000 -145.700 TC 45 21.1000 -145.700 2 16 240

IBTrACS Databaseについて

本データベースは、米国NOAAが公開する1842年以降の世界の熱帯低気圧のベストトラックデータアーカイブInternational Best Track Archive for Climate Stewardship (IBTrACS)を、ウェブで閲覧しやすい形式に変換したものです。

最終更新日:2021-12-03